Time;durP1;ratioP1;P1;durP2;ratioP2;P2;SDS_P1;SDS_P2;PMS_P1;PMS_P2;Temp;Humidity;BMP_temperature;BMP_pressure;BME280_temperature;BME280_humidity;BME280_pressure;Samples;Min_cycle;Max_cycle;Signal;HPM_P1;HPM_P2
2022/08/24 00:02:14;;;;;;;5.63;4.00;;;24.80;1.00;;;;;;5082671;28;20429;-78
2022/08/24 00:04:39;;;;;;;5.67;3.73;;;24.70;1.00;;;;;;5081492;28;20990;-78
2022/08/24 00:07:07;;;;;;;5.50;4.07;;;24.80;1.00;;;;;;5088550;28;20187;-78
2022/08/24 00:09:33;;;;;;;10.10;4.40;;;24.70;1.00;;;;;;5091921;28;20187;-79
2022/08/24 00:11:59;;;;;;;6.63;3.37;;;24.70;1.00;;;;;;5104318;28;20468;-78
2022/08/24 00:14:25;;;;;;;5.23;3.70;;;24.70;1.00;;;;;;5097668;28;20457;-79
2022/08/24 00:16:51;;;;;;;9.33;4.00;;;24.70;1.00;;;;;;5103225;28;20231;-78
2022/08/24 00:19:16;;;;;;;7.03;4.20;;;24.50;1.00;;;;;;5094096;28;20178;-77
2022/08/24 00:21:42;;;;;;;9.13;3.90;;;24.50;1.00;;;;;;5092142;28;20175;-77
2022/08/24 00:24:08;;;;;;;6.33;4.00;;;24.50;1.00;;;;;;5080014;28;20289;-78
2022/08/24 00:26:34;;;;;;;6.33;4.00;;;24.50;1.00;;;;;;5090577;28;20527;-77
2022/08/24 00:29:00;;;;;;;12.37;4.20;;;24.40;1.00;;;;;;5082098;28;20263;-78
2022/08/24 00:31:26;;;;;;;6.60;4.10;;;24.40;1.00;;;;;;5087563;28;20187;-78
2022/08/24 00:33:52;;;;;;;8.13;4.17;;;24.40;1.00;;;;;;5075855;28;20466;-77
2022/08/24 00:36:20;;;;;;;7.13;3.90;;;24.30;1.00;;;;;;5089585;28;20207;-77
2022/08/24 00:38:46;;;;;;;5.77;4.03;;;24.30;1.00;;;;;;5088041;28;20429;-78
2022/08/24 00:41:33;;;;;;;11.43;4.47;;;24.20;1.00;;;;;;5090147;28;20690;-77
2022/08/24 00:44:03;;;;;;;6.87;3.77;;;24.60;1.00;;;;;;5079183;28;20198;-78
2022/08/24 00:46:50;;;;;;;10.30;3.60;;;24.30;1.00;;;;;;5088805;28;20454;-78
2022/08/24 00:49:41;;;;;;;5.70;4.00;;;24.20;1.00;;;;;;5083715;28;20451;-78
2022/08/24 00:52:24;;;;;;;11.53;4.10;;;24.10;1.00;;;;;;5091768;28;20701;-78
2022/08/24 00:54:59;;;;;;;6.03;3.87;;;24.10;1.00;;;;;;5083749;28;20472;-78
2022/08/24 00:57:30;;;;;;;7.20;4.40;;;24.20;1.00;;;;;;5087538;28;20436;-78
2022/08/24 01:00:00;;;;;;;6.97;3.90;;;24.00;1.00;;;;;;5087501;28;20401;-78
2022/08/24 01:02:31;;;;;;;8.47;3.73;;;24.00;1.00;;;;;;5081204;28;20436;-77
2022/08/24 01:05:00;;;;;;;6.27;4.10;;;24.40;1.00;;;;;;5084446;28;20571;-78
2022/08/24 01:07:28;;;;;;;11.83;4.00;;;23.90;1.00;;;;;;5089229;28;20417;-78
2022/08/24 01:10:00;;;;;;;5.67;4.17;;;23.80;1.00;;;;;;5082611;28;20544;-79
2022/08/24 01:12:28;;;;;;;5.03;4.00;;;23.70;1.00;;;;;;5092959;28;20955;-78
2022/08/24 01:14:56;;;;;;;6.13;4.70;;;23.60;1.00;;;;;;5089681;28;20490;-79
2022/08/24 01:20:08;;;;;;;8.13;4.07;;;23.40;1.00;;;;;;5079072;28;20448;-78
2022/08/24 01:22:57;;;;;;;5.60;4.10;;;23.30;1.00;;;;;;5089535;28;20918;-78
2022/08/24 01:25:26;;;;;;;5.70;3.63;;;23.30;1.00;;;;;;5070312;28;20463;-78
2022/08/24 01:27:58;;;;;;;7.03;4.20;;;23.30;1.00;;;;;;5085527;28;20564;-79
2022/08/24 01:30:25;;;;;;;5.00;3.93;;;23.30;1.00;;;;;;5069289;28;20815;-78
2022/08/24 01:32:53;;;;;;;9.03;4.40;;;23.40;1.00;;;;;;5086959;28;20464;-78
2022/08/24 01:35:19;;;;;;;5.53;4.07;;;23.30;1.00;;;;;;5087516;28;20493;-78
2022/08/24 01:37:45;;;;;;;6.67;4.40;;;23.30;1.00;;;;;;5088427;28;20417;-78
2022/08/24 01:40:12;;;;;;;5.33;4.00;;;23.30;1.00;;;;;;5078024;28;20183;-78
2022/08/24 01:42:37;;;;;;;7.03;4.30;;;23.30;1.00;;;;;;5068413;28;20497;-78
2022/08/24 01:45:03;;;;;;;6.40;4.43;;;23.20;1.00;;;;;;5081833;28;20835;-79
2022/08/24 01:47:29;;;;;;;6.80;4.00;;;23.20;1.00;;;;;;5087820;28;20183;-78
2022/08/24 01:49:55;;;;;;;4.70;3.70;;;23.20;1.00;;;;;;5088931;28;20428;-77
2022/08/24 01:52:23;;;;;;;6.33;4.23;;;23.20;1.00;;;;;;5097447;28;20206;-77
2022/08/24 01:54:49;;;;;;;5.70;3.53;;;23.20;1.00;;;;;;5108094;28;20244;-78
2022/08/24 01:57:15;;;;;;;9.33;4.57;;;23.20;1.00;;;;;;5087684;28;20414;-77
2022/08/24 01:59:41;;;;;;;8.03;3.77;;;23.20;1.00;;;;;;5068918;28;20183;-77
2022/08/24 02:02:18;;;;;;;6.13;4.00;;;23.30;1.00;;;;;;5071513;28;20429;-77
2022/08/24 02:04:44;;;;;;;7.90;3.73;;;23.40;1.00;;;;;;5088355;28;20191;-78
2022/08/24 02:07:09;;;;;;;9.50;3.80;;;23.30;1.00;;;;;;5083368;28;20479;-77
2022/08/24 02:09:36;;;;;;;11.30;3.83;;;23.30;1.00;;;;;;5080387;28;20187;-77
2022/08/24 02:12:02;;;;;;;7.63;3.70;;;23.40;1.00;;;;;;5079810;28;20189;-77
2022/08/24 02:14:28;;;;;;;7.13;3.27;;;23.30;1.00;;;;;;5088850;28;20429;-77
2022/08/24 02:16:56;;;;;;;4.87;3.60;;;23.30;1.00;;;;;;5080405;28;20483;-77
2022/08/24 02:19:22;;;;;;;5.53;3.30;;;23.40;1.00;;;;;;5082802;28;20859;-78
2022/08/24 02:21:47;;;;;;;6.70;3.70;;;23.30;1.00;;;;;;5082641;28;20433;-77
2022/08/24 02:24:13;;;;;;;4.10;3.37;;;23.30;1.00;;;;;;5087193;28;20453;-78
2022/08/24 02:26:39;;;;;;;10.27;3.80;;;23.40;1.00;;;;;;5086341;28;20263;-78
2022/08/24 02:29:05;;;;;;;4.60;3.30;;;23.70;1.00;;;;;;5084813;28;20241;-78
2022/08/24 02:31:31;;;;;;;4.67;3.43;;;23.30;1.00;;;;;;5082414;28;20417;-79
2022/08/24 02:33:57;;;;;;;4.10;3.00;;;23.50;1.00;;;;;;5087306;28;20218;-79
2022/08/24 02:36:23;;;;;;;9.13;3.40;;;23.40;1.00;;;;;;5088666;28;20432;-78
2022/08/24 02:38:48;;;;;;;5.90;3.40;;;23.40;1.00;;;;;;5078421;28;20175;-78
2022/08/24 02:41:14;;;;;;;5.60;3.50;;;23.30;1.00;;;;;;5088569;28;20467;-78
2022/08/24 02:43:40;;;;;;;5.20;3.50;;;23.30;1.00;;;;;;5078926;28;20195;-78
2022/08/24 02:46:05;;;;;;;5.03;3.30;;;23.30;1.00;;;;;;5086990;28;20180;-78
2022/08/24 02:48:31;;;;;;;6.23;3.20;;;23.30;1.00;;;;;;5070020;28;20248;-78
2022/08/24 02:50:57;;;;;;;11.93;3.50;;;23.30;1.00;;;;;;5090385;28;20187;-78
2022/08/24 02:53:23;;;;;;;5.30;3.20;;;23.30;1.00;;;;;;5084626;28;20203;-78
2022/08/24 02:55:49;;;;;;;4.53;3.27;;;23.40;1.00;;;;;;5092743;28;20194;-79
2022/08/24 02:58:16;;;;;;;5.87;3.30;;;23.20;1.00;;;;;;5090675;28;20429;-78
2022/08/24 03:00:44;;;;;;;3.97;3.30;;;23.20;1.00;;;;;;5092200;28;20409;-79
2022/08/24 03:03:10;;;;;;;5.60;3.40;;;23.20;1.00;;;;;;5088712;28;20457;-78
2022/08/24 03:05:36;;;;;;;3.97;2.90;;;23.30;1.00;;;;;;5091575;28;20412;-77
2022/08/24 03:08:02;;;;;;;5.10;3.10;;;23.20;1.00;;;;;;5083155;28;20960;-78
2022/08/24 03:10:27;;;;;;;5.83;3.17;;;23.10;1.00;;;;;;5092154;28;20535;-78
2022/08/24 03:12:53;;;;;;;8.77;3.40;;;23.10;1.00;;;;;;5082217;28;20241;-78
2022/08/24 03:15:23;;;;;;;4.30;3.33;;;23.10;1.00;;;;;;5090672;28;20282;-78
2022/08/24 03:17:49;;;;;;;6.27;3.20;;;23.10;1.00;;;;;;5082825;28;20665;-78
2022/08/24 03:20:17;;;;;;;7.87;3.60;;;23.10;1.00;;;;;;5088197;28;20443;-79
2022/08/24 03:22:43;;;;;;;4.40;3.20;;;23.00;1.00;;;;;;5087344;28;20437;-78
2022/08/24 03:25:10;;;;;;;4.80;3.07;;;23.00;1.00;;;;;;5084793;28;20504;-79
2022/08/24 03:27:35;;;;;;;7.87;3.00;;;23.00;1.00;;;;;;5091094;28;20183;-78
2022/08/24 03:30:02;;;;;;;8.70;3.30;;;23.00;1.00;;;;;;5083337;28;20752;-78
2022/08/24 03:32:27;;;;;;;4.00;3.03;;;22.90;1.00;;;;;;5088251;28;20574;-79
2022/08/24 03:34:53;;;;;;;5.43;3.10;;;23.10;1.00;;;;;;5091090;28;20688;-79
2022/08/24 03:37:19;;;;;;;3.83;3.17;;;22.90;1.00;;;;;;5089094;28;20200;-79
2022/08/24 03:39:46;;;;;;;5.10;3.23;;;22.90;1.00;;;;;;5091721;28;20171;-79
2022/08/24 03:42:13;;;;;;;4.57;3.43;;;22.80;1.00;;;;;;5088878;28;20433;-79
2022/08/24 03:44:40;;;;;;;6.20;3.40;;;22.70;1.00;;;;;;5090333;28;20524;-79
2022/08/24 03:47:08;;;;;;;11.20;3.30;;;22.60;1.00;;;;;;5089372;28;20439;-78
2022/08/24 03:49:34;;;;;;;7.47;3.80;;;22.50;1.00;;;;;;5089157;28;20420;-78
2022/08/24 03:51:59;;;;;;;4.80;3.73;;;22.50;1.00;;;;;;5094892;28;20430;-79
2022/08/24 03:54:25;;;;;;;6.03;3.80;;;22.40;1.00;;;;;;5085986;28;20227;-78
2022/08/24 03:56:51;;;;;;;6.93;4.30;;;22.30;1.00;;;;;;5086941;28;20184;-79
2022/08/24 03:59:16;;;;;;;5.93;4.17;;;22.30;1.00;;;;;;5085855;28;20160;-78
2022/08/24 04:01:42;;;;;;;4.67;4.10;;;22.20;1.00;;;;;;5074548;28;20199;-78
2022/08/24 04:04:07;;;;;;;5.60;3.90;;;22.10;1.00;;;;;;5083088;28;20701;-78
2022/08/24 04:06:33;;;;;;;7.93;4.13;;;22.10;1.00;;;;;;5088233;28;20172;-78
2022/08/24 04:08:59;;;;;;;6.63;4.47;;;22.00;1.00;;;;;;5090858;28;20202;-78
2022/08/24 04:11:27;;;;;;;9.30;4.00;;;22.00;1.00;;;;;;5088449;28;20670;-78
2022/08/24 04:13:57;;;;;;;10.17;4.10;;;21.80;1.00;;;;;;5074621;28;20207;-77
2022/08/24 04:16:24;;;;;;;6.53;4.10;;;21.70;1.00;;;;;;5091727;28;20858;-78
2022/08/24 04:18:50;;;;;;;7.33;3.70;;;21.50;1.00;;;;;;5088591;28;20433;-78
2022/08/24 04:21:18;;;;;;;5.30;3.80;;;21.40;1.00;;;;;;5093054;28;20541;-78
2022/08/24 04:23:43;;;;;;;5.27;3.83;;;21.40;1.00;;;;;;5088663;28;20195;-78
2022/08/24 04:26:09;;;;;;;5.20;4.00;;;21.40;1.00;;;;;;5090546;28;20416;-77
2022/08/24 04:28:34;;;;;;;8.40;4.20;;;21.30;1.00;;;;;;5081797;28;20278;-78
2022/08/24 04:31:04;;;;;;;5.90;4.00;;;21.20;1.00;;;;;;5090509;28;20256;-78
2022/08/24 04:33:30;;;;;;;6.13;4.10;;;21.10;1.00;;;;;;5079480;28;20210;-78
2022/08/24 04:35:56;;;;;;;7.03;4.00;;;21.10;1.00;;;;;;5089735;28;20406;-78
2022/08/24 04:38:22;;;;;;;5.63;4.70;;;23.00;1.00;;;;;;5088972;28;20981;-78
2022/08/24 04:40:47;;;;;;;9.20;4.10;;;21.20;1.00;;;;;;5088746;28;20190;-78
2022/08/24 04:43:14;;;;;;;7.60;4.20;;;21.00;1.00;;;;;;5089302;28;20205;-78
2022/08/24 04:45:41;;;;;;;5.00;4.00;;;21.00;1.00;;;;;;5080755;28;20229;-78
2022/08/24 04:48:07;;;;;;;6.33;4.17;;;21.00;1.00;;;;;;5088037;28;20429;-79
2022/08/24 04:50:34;;;;;;;7.13;4.23;;;20.90;1.00;;;;;;5086906;28;20448;-78
2022/08/24 04:53:00;;;;;;;5.60;4.40;;;20.80;1.00;;;;;;5092842;28;20198;-78
2022/08/24 04:55:26;;;;;;;6.63;4.50;;;20.80;1.00;;;;;;5095926;28;20816;-78
2022/08/24 04:57:51;;;;;;;7.60;5.23;;;20.80;1.00;;;;;;5089772;28;20299;-79
2022/08/24 05:00:17;;;;;;;7.87;4.83;;;20.80;1.00;;;;;;5083138;28;20169;-78
2022/08/24 05:02:42;;;;;;;8.83;4.70;;;20.90;1.00;;;;;;5083839;28;20175;-78
2022/08/24 05:05:10;;;;;;;7.90;4.90;;;20.90;1.00;;;;;;5086142;28;20558;-78
2022/08/24 05:07:36;;;;;;;9.03;5.10;;;21.00;1.00;;;;;;5088074;28;20183;-78
2022/08/24 05:10:04;;;;;;;8.20;5.17;;;21.00;1.00;;;;;;5086549;28;20759;-77
2022/08/24 05:12:30;;;;;;;7.30;5.23;;;21.10;1.00;;;;;;5085646;28;20536;-78
2022/08/24 05:14:57;;;;;;;10.57;5.43;;;21.20;1.00;;;;;;5087565;28;20579;-78
2022/08/24 05:17:23;;;;;;;9.40;5.17;;;21.30;1.00;;;;;;5085484;28;20827;-79
2022/08/24 05:19:49;;;;;;;6.50;4.90;;;21.40;1.00;;;;;;5088476;28;20508;-78
2022/08/24 05:22:15;;;;;;;12.03;5.43;;;21.50;1.00;;;;;;5095094;28;20595;-78
2022/08/24 05:24:40;;;;;;;11.07;5.37;;;21.50;1.00;;;;;;5086890;28;20256;-78
2022/08/24 05:27:06;;;;;;;10.17;5.10;;;21.50;1.00;;;;;;5089287;28;20183;-78
2022/08/24 05:29:33;;;;;;;10.20;5.43;;;22.20;1.00;;;;;;5082651;28;20198;-79
2022/08/24 05:31:59;;;;;;;9.67;5.43;;;21.60;1.00;;;;;;5076253;28;20609;-78
2022/08/24 05:34:25;;;;;;;6.50;5.40;;;21.80;1.00;;;;;;5084802;28;20563;-78
2022/08/24 05:36:50;;;;;;;11.80;5.53;;;21.80;1.00;;;;;;5087590;28;20435;-78
2022/08/24 05:39:16;;;;;;;8.73;5.57;;;21.90;1.00;;;;;;5081021;28;20192;-78
2022/08/24 05:41:43;;;;;;;9.20;5.93;;;22.00;1.00;;;;;;5085480;28;20179;-78
2022/08/24 05:44:09;;;;;;;12.73;6.00;;;22.10;1.00;;;;;;5084455;28;20226;-78
2022/08/24 05:46:35;;;;;;;13.50;5.73;;;22.10;1.00;;;;;;5087262;28;20536;-84
2022/08/24 05:49:01;;;;;;;8.80;5.93;;;22.30;1.00;;;;;;5092140;28;20724;-83
2022/08/24 05:51:28;;;;;;;6.63;5.50;;;22.40;1.00;;;;;;5102162;28;20464;-83
2022/08/24 05:53:55;;;;;;;11.67;5.60;;;22.40;1.00;;;;;;5092493;28;20477;-81
2022/08/24 05:56:21;;;;;;;15.30;6.10;;;22.40;1.00;;;;;;5098649;28;20597;-83
2022/08/24 05:58:47;;;;;;;6.90;4.93;;;23.00;1.00;;;;;;5093227;28;20434;-83
2022/08/24 06:01:17;;;;;;;9.97;5.73;;;22.50;1.00;;;;;;5085934;28;20270;-81
2022/08/24 06:03:43;;;;;;;7.10;5.93;;;22.40;1.00;;;;;;5090443;28;20453;-79
2022/08/24 06:06:10;;;;;;;11.53;5.97;;;22.70;1.00;;;;;;5092249;28;20480;-79
2022/08/24 06:08:38;;;;;;;8.40;5.68;;;22.90;1.00;;;;;;5083449;28;20434;-77
2022/08/24 06:11:04;;;;;;;10.30;5.47;;;23.00;1.00;;;;;;5075851;28;20558;-78
2022/08/24 06:13:30;;;;;;;18.23;5.73;;;23.20;1.00;;;;;;5086540;28;20544;-78
2022/08/24 06:16:08;;;;;;;8.70;5.80;;;23.30;1.00;;;;;;5082219;28;20442;-80
2022/08/24 06:18:34;;;;;;;8.43;5.50;;;23.30;1.00;;;;;;5084163;28;20520;-79
2022/08/24 06:21:05;;;;;;;10.50;6.00;;;23.40;1.00;;;;;;5075829;28;21075;-79
2022/08/24 06:23:30;;;;;;;14.23;5.60;;;23.50;1.00;;;;;;5080025;28;20839;-77
2022/08/24 06:28:43;;;;;;;7.80;5.20;;;23.60;1.00;;;;;;5086673;28;20231;-77
2022/08/24 06:31:08;;;;;;;9.73;5.63;;;23.60;1.00;;;;;;5085779;28;20465;-77
2022/08/24 06:33:34;;;;;;;8.97;5.03;;;23.70;1.00;;;;;;5088660;28;20533;-77
2022/08/24 06:36:00;;;;;;;8.90;5.60;;;24.00;1.00;;;;;;5079955;28;20642;-78
2022/08/24 06:38:25;;;;;;;13.63;6.00;;;24.10;1.00;;;;;;5087674;28;20175;-77
2022/08/24 06:40:51;;;;;;;7.20;5.27;;;24.20;1.00;;;;;;5093169;28;20159;-78
2022/08/24 06:43:17;;;;;;;6.00;5.00;;;24.30;1.00;;;;;;5087980;28;20198;-78
2022/08/24 06:45:43;;;;;;;7.37;5.30;;;24.40;1.00;;;;;;5087891;28;20182;-77
2022/08/24 06:48:08;;;;;;;10.80;5.50;;;24.50;1.00;;;;;;5083387;28;20188;-76
2022/08/24 06:50:34;;;;;;;7.83;5.50;;;24.80;1.00;;;;;;5081200;28;20447;-77
2022/08/24 06:53:00;;;;;;;8.90;5.60;;;25.10;1.00;;;;;;5095094;28;20285;-77
2022/08/24 06:55:27;;;;;;;7.63;5.67;;;25.30;1.00;;;;;;5093035;28;20171;-77
2022/08/24 06:57:54;;;;;;;11.00;5.03;;;25.70;1.00;;;;;;5092198;28;20835;-77
2022/08/24 07:00:20;;;;;;;13.63;5.57;;;25.90;1.00;;;;;;5093244;28;20406;-77
2022/08/24 07:02:45;;;;;;;8.00;5.27;;;26.10;1.00;;;;;;5092951;28;20748;-77
2022/08/24 07:05:11;;;;;;;9.30;4.97;;;26.20;1.00;;;;;;5092883;28;20224;-77
2022/08/24 07:07:37;;;;;;;10.90;4.60;;;26.10;1.00;;;;;;5093686;28;20213;-77
2022/08/24 07:10:05;;;;;;;7.03;4.97;;;26.20;1.00;;;;;;5093588;28;20168;-77
2022/08/24 07:12:30;;;;;;;9.60;4.73;;;26.10;1.00;;;;;;5093377;28;20445;-77
2022/08/24 07:14:56;;;;;;;6.97;4.80;;;26.20;1.00;;;;;;5093357;28;20458;-77
2022/08/24 07:17:21;;;;;;;8.50;5.00;;;26.20;1.00;;;;;;5092560;28;20160;-77
2022/08/24 07:19:47;;;;;;;7.33;4.60;;;26.30;1.00;;;;;;5092699;28;20167;-77
2022/08/24 07:22:13;;;;;;;10.03;4.73;;;26.30;1.00;;;;;;5097757;28;20170;-77
2022/08/24 07:24:39;;;;;;;9.20;5.30;;;26.30;1.00;;;;;;5092721;28;20735;-77
2022/08/24 07:27:05;;;;;;;9.53;5.30;;;26.40;1.00;;;;;;5093150;28;20230;-77
2022/08/24 07:29:31;;;;;;;7.20;4.60;;;26.60;1.00;;;;;;5092869;28;20448;-77
2022/08/24 07:31:57;;;;;;;8.70;5.40;;;26.60;1.00;;;;;;5092021;28;20253;-77
2022/08/24 07:34:23;;;;;;;10.07;4.53;;;26.50;1.00;;;;;;5092442;28;20351;-78
2022/08/24 07:36:49;;;;;;;10.17;5.43;;;26.60;1.00;;;;;;5092873;28;20171;-77
2022/08/24 07:39:15;;;;;;;6.30;5.07;;;27.00;1.00;;;;;;5092659;28;20171;-77
2022/08/24 07:41:43;;;;;;;10.97;5.07;;;27.00;1.00;;;;;;5092926;28;20216;-77
2022/08/24 07:44:11;;;;;;;7.33;4.70;;;27.40;1.00;;;;;;5092773;28;20187;-77
2022/08/24 07:46:39;;;;;;;6.47;4.30;;;28.30;1.00;;;;;;5092806;28;20183;-78
2022/08/24 07:49:06;;;;;;;7.57;4.57;;;28.80;1.00;;;;;;5091687;28;20183;-77
2022/08/24 07:51:32;;;;;;;8.30;4.47;;;29.70;1.00;;;;;;5100323;28;20179;-78
2022/08/24 07:54:00;;;;;;;8.38;4.40;;;30.40;1.00;;;;;;5104332;28;20740;-78
2022/08/24 07:56:27;;;;;;;7.07;3.95;;;31.00;1.00;;;;;;5113500;28;20332;-78
2022/08/24 07:58:53;;;;;;;5.68;3.80;;;31.30;1.00;;;;;;5113189;28;20649;-78
2022/08/24 08:01:20;;;;;;;5.78;3.90;;;32.10;1.00;;;;;;5101727;27;20654;-78
2022/08/24 08:03:46;;;;;;;6.50;3.65;;;32.50;1.00;;;;;;5089344;28;20620;-78
2022/08/24 08:06:11;;;;;;;7.18;3.60;;;32.80;1.00;;;;;;5092650;28;20258;-78
2022/08/24 08:08:39;;;;;;;4.50;3.17;;;32.60;1.00;;;;;;5092495;28;20167;-78
2022/08/24 08:11:06;;;;;;;7.25;3.45;;;32.80;1.00;;;;;;5092126;28;20163;-78
2022/08/24 08:13:33;;;;;;;5.47;3.30;;;31.40;1.00;;;;;;5092219;28;20230;-78
2022/08/24 08:15:59;;;;;;;5.32;3.00;;;31.00;1.00;;;;;;5091652;28;20270;-77
2022/08/24 08:18:26;;;;;;;10.38;3.72;;;30.60;1.00;;;;;;5092220;28;20171;-78
2022/08/24 08:20:52;;;;;;;9.63;3.03;;;30.90;1.00;;;;;;5091001;28;20172;-79
2022/08/24 08:26:02;;;;;;;6.38;3.17;;;31.70;1.00;;;;;;5091982;28;20244;-79
2022/08/24 08:28:31;;;;;;;5.45;3.13;;;32.20;1.00;;;;;;5091863;28;20179;-78
2022/08/24 08:31:01;;;;;;;8.32;3.30;;;32.80;1.00;;;;;;5091289;28;20258;-77
2022/08/24 08:33:27;;;;;;;7.28;3.00;;;33.20;1.00;;;;;;5091620;28;20583;-78
2022/08/24 08:36:11;;;;;;;3.78;3.00;;;33.30;1.00;;;;;;5091322;28;20220;-78
2022/08/24 08:38:38;;;;;;;4.85;3.05;;;33.40;1.00;;;;;;5091728;28;20167;-78
2022/08/24 08:41:07;;;;;;;5.47;3.33;;;33.80;1.00;;;;;;5091492;28;20171;-77
2022/08/24 08:43:41;;;;;;;7.40;5.85;;;34.00;1.00;;;;;;5083692;28;20286;-78
2022/08/24 08:46:40;;;;;;;4.85;3.15;;;34.10;1.00;;;;;;5083924;28;20170;-79
2022/08/24 08:49:15;;;;;;;7.32;3.10;;;34.50;1.00;;;;;;5090584;28;20167;-78
2022/08/24 08:52:16;;;;;;;7.00;2.90;;;35.30;1.00;;;;;;5101218;28;20170;-80
2022/08/24 08:55:10;;;;;;;5.47;2.97;;;35.20;1.00;;;;;;5114606;28;20215;-79
2022/08/24 08:57:42;;;;;;;4.43;2.95;;;35.50;1.00;;;;;;5118176;28;20166;-79
2022/08/24 09:00:21;;;;;;;6.03;3.22;;;35.50;1.00;;;;;;5117704;28;20334;-79
2022/08/24 09:03:15;;;;;;;4.65;2.80;;;35.80;1.00;;;;;;5118411;28;20186;-79
2022/08/24 09:05:59;;;;;;;3.90;2.72;;;36.60;1.00;;;;;;5117842;28;20224;-79
2022/08/24 09:08:40;;;;;;;3.63;2.60;;;37.10;1.00;;;;;;5118443;28;20171;-79
2022/08/24 09:11:50;;;;;;;6.78;2.90;;;37.00;1.00;;;;;;5118712;28;20173;-79
2022/08/24 09:14:55;;;;;;;5.07;3.00;;;36.70;1.00;;;;;;5084057;28;20214;-79
2022/08/24 09:18:00;;;;;;;4.10;2.75;;;36.70;1.00;;;;;;5117116;28;20191;-78
2022/08/24 09:20:54;;;;;;;5.05;2.70;;;37.20;1.00;;;;;;5108340;28;20217;-80
2022/08/24 09:23:38;;;;;;;3.15;2.40;;;37.80;1.00;;;;;;5088193;28;20603;-79
2022/08/24 09:26:07;;;;;;;5.65;2.75;;;38.40;1.00;;;;;;5071760;28;20594;-79
2022/08/24 09:28:48;;;;;;;5.22;2.67;;;39.80;1.00;;;;;;5072489;28;20183;-78
2022/08/24 09:31:37;;;;;;;3.08;2.55;;;39.30;1.00;;;;;;5076417;28;20163;-79
2022/08/24 09:34:17;;;;;;;5.03;2.75;;;39.60;1.00;;;;;;5091393;28;20203;-79
2022/08/24 09:36:51;;;;;;;3.10;2.28;;;39.20;1.00;;;;;;5091801;28;20168;-78
2022/08/24 09:39:45;;;;;;;5.10;2.60;;;39.00;1.00;;;;;;5092238;28;20163;-78
2022/08/24 09:42:28;;;;;;;10.60;2.70;;;39.50;1.00;;;;;;5092005;28;20179;-79
2022/08/24 09:45:24;;;;;;;7.85;3.00;;;39.90;1.00;;;;;;5093026;28;20187;-79
2022/08/24 09:48:11;;;;;;;8.75;3.33;;;41.40;1.00;;;;;;5094610;28;20175;-79
2022/08/24 09:50:49;;;;;;;6.03;2.50;;;41.80;1.00;;;;;;5094859;28;20246;-79
2022/08/24 09:54:03;;;;;;;4.38;2.65;;;42.90;1.00;;;;;;5109968;28;20194;-79
2022/08/24 09:56:55;;;;;;;4.85;2.40;;;43.10;1.00;;;;;;5128578;28;20170;-80
2022/08/24 09:59:48;;;;;;;8.38;2.40;;;43.40;1.00;;;;;;5127060;28;20177;-80
2022/08/24 10:02:35;;;;;;;8.40;2.20;;;44.10;1.00;;;;;;5106514;28;20168;-79
2022/08/24 10:05:32;;;;;;;9.95;2.40;;;45.30;1.00;;;;;;5086547;28;20194;-80
2022/08/24 10:08:16;;;;;;;4.63;2.10;;;45.80;1.00;;;;;;5096058;28;20166;-80
2022/08/24 10:10:57;;;;;;;7.13;2.45;;;46.00;1.00;;;;;;5095255;28;20281;-80
2022/08/24 10:13:41;;;;;;;6.30;2.30;;;45.60;1.00;;;;;;5096168;28;20195;-79
2022/08/24 10:16:19;;;;;;;4.05;2.17;;;45.50;1.00;;;;;;5095662;28;20171;-79
2022/08/24 10:19:06;;;;;;;4.93;2.17;;;45.30;1.00;;;;;;5094161;28;20166;-79
2022/08/24 10:22:10;;;;;;;7.95;2.30;;;45.40;1.00;;;;;;5103928;28;20174;-80
2022/08/24 10:24:54;;;;;;;5.25;2.40;;;45.40;1.00;;;;;;5110338;28;20319;-79
2022/08/24 10:27:48;;;;;;;3.38;2.30;;;45.60;1.00;;;;;;5115933;28;20179;-80
2022/08/24 10:30:38;;;;;;;6.88;2.28;;;46.20;1.00;;;;;;5116328;28;20170;-79
2022/08/24 10:33:21;;;;;;;5.28;2.30;;;46.70;1.00;;;;;;5096244;28;20207;-79
2022/08/24 10:36:20;;;;;;;4.05;2.35;;;46.70;1.00;;;;;;5095728;28;20330;-79
2022/08/24 10:43:32;;;;;;;4.15;2.25;;;46.60;1.00;;;;;;5095798;28;20201;-80
2022/08/24 10:45:25;;;;;;;2.60;2.00;;;47.40;1.00;;;;;;5087357;28;20209;-80
2022/08/24 10:48:19;;;;;;;3.97;2.40;;;47.30;1.00;;;;;;5095003;28;20176;-79
2022/08/24 10:50:53;;;;;;;5.15;2.20;;;45.90;1.00;;;;;;5096155;28;20168;-80
2022/08/24 10:53:27;;;;;;;2.90;2.28;;;46.40;1.00;;;;;;5097396;28;20206;-79
2022/08/24 10:56:15;;;;;;;9.85;2.25;;;47.00;1.00;;;;;;5115406;28;20179;-80
2022/08/24 10:59:14;;;;;;;3.97;2.22;;;46.40;1.00;;;;;;5115957;28;20171;-79
2022/08/24 11:02:26;;;;;;;4.22;2.40;;;46.30;1.00;;;;;;5115250;28;20171;-79
2022/08/24 11:04:57;;;;;;;4.45;2.50;;;47.10;1.00;;;;;;5114050;28;20182;-80
2022/08/24 11:07:23;;;;;;;10.18;2.80;;;46.40;1.00;;;;;;5120421;28;20171;-80
2022/08/24 11:10:16;;;;;;;3.05;2.30;;;46.10;1.00;;;;;;5122136;28;20216;-80
2022/08/24 11:12:42;;;;;;;3.78;2.42;;;46.90;1.00;;;;;;5121180;28;20213;-80
2022/08/24 11:15:17;;;;;;;2.72;2.15;;;47.10;1.00;;;;;;5123637;28;20251;-80
2022/08/24 11:17:57;;;;;;;5.45;2.92;;;47.30;1.00;;;;;;5125384;28;20250;-80
2022/08/24 11:20:28;;;;;;;3.53;2.58;;;47.60;1.00;;;;;;5120976;28;20179;-80
2022/08/24 11:23:03;;;;;;;3.13;2.20;;;47.80;1.00;;;;;;5106693;28;20182;-80
2022/08/24 11:25:32;;;;;;;5.25;2.85;;;48.30;1.00;;;;;;5105263;28;20253;-81
2022/08/24 11:28:07;;;;;;;8.15;2.58;;;48.90;1.00;;;;;;5104886;28;20390;-81
2022/08/24 11:30:38;;;;;;;5.20;2.92;;;49.40;1.00;;;;;;5105149;28;20169;-80
2022/08/24 11:33:22;;;;;;;4.32;2.42;;;50.00;1.00;;;;;;5085205;28;20196;-80
2022/08/24 11:35:48;;;;;;;6.20;3.05;;;49.90;1.00;;;;;;5084809;28;20390;-81
2022/08/24 11:38:20;;;;;;;5.50;2.25;;;50.10;1.00;;;;;;5085790;28;20168;-81
2022/08/24 11:40:58;;;;;;;4.00;2.88;;;50.60;1.00;;;;;;5085479;28;20635;-81
2022/08/24 11:43:46;;;;;;;8.68;2.65;;;50.60;1.00;;;;;;5085729;28;20180;-80
2022/08/24 11:46:38;;;;;;;3.53;2.20;;;50.40;1.00;;;;;;5085018;28;20179;-80
2022/08/24 11:49:32;;;;;;;5.28;2.60;;;50.40;1.00;;;;;;5081989;28;20206;-80
2022/08/24 11:52:12;;;;;;;3.65;2.40;;;50.00;1.00;;;;;;5109646;28;20169;-80
2022/08/24 11:54:50;;;;;;;2.78;2.40;;;50.10;1.00;;;;;;5122959;28;20240;-80
2022/08/24 11:57:28;;;;;;;3.40;2.40;;;50.40;1.00;;;;;;5125993;28;20208;-80
2022/08/24 11:59:57;;;;;;;3.95;2.58;;;49.90;1.00;;;;;;5125830;28;20535;-80
2022/08/24 12:02:30;;;;;;;5.70;2.80;;;49.10;1.00;;;;;;5109439;28;20262;-80
2022/08/24 12:05:13;;;;;;;4.70;2.40;;;49.40;1.00;;;;;;5104361;28;20202;-80
2022/08/24 12:08:17;;;;;;;5.88;2.40;;;48.90;1.00;;;;;;5106620;28;20580;-80
2022/08/24 12:10:56;;;;;;;4.85;2.83;;;48.90;1.00;;;;;;5106134;28;20171;-80
2022/08/24 12:14:05;;;;;;;8.90;2.58;;;48.10;1.00;;;;;;5105248;28;20199;-80
2022/08/24 12:16:42;;;;;;;5.55;2.70;;;46.80;1.00;;;;;;5104592;28;20160;-80
2022/08/24 12:19:17;;;;;;;5.65;2.50;;;46.10;1.00;;;;;;5104566;28;20187;-80
2022/08/24 12:21:50;;;;;;;3.40;2.60;;;46.10;1.00;;;;;;5103942;28;20200;-80
2022/08/24 12:24:24;;;;;;;3.38;2.42;;;46.00;1.00;;;;;;5119981;28;20186;-80
2022/08/24 12:26:54;;;;;;;3.95;2.80;;;46.30;1.00;;;;;;5125673;28;20174;-80
2022/08/24 12:29:39;;;;;;;4.97;2.75;;;46.50;1.00;;;;;;5125641;28;20166;-80
2022/08/24 12:32:16;;;;;;;3.72;2.33;;;46.50;1.00;;;;;;5112789;28;20673;-81
2022/08/24 12:34:45;;;;;;;4.55;2.40;;;46.30;1.00;;;;;;5104591;28;20206;-80
2022/08/24 12:37:17;;;;;;;6.68;2.83;;;47.40;1.00;;;;;;5104948;28;20160;-80
2022/08/24 12:39:48;;;;;;;7.00;2.80;;;48.30;1.00;;;;;;5105288;28;20186;-80
2022/08/24 12:42:44;;;;;;;10.40;2.53;;;48.80;1.00;;;;;;5105046;28;20183;-80
2022/08/24 12:45:12;;;;;;;4.25;2.75;;;48.80;1.00;;;;;;5097402;28;20234;-80
2022/08/24 12:48:07;;;;;;;5.45;2.42;;;48.60;1.00;;;;;;5105661;28;20183;-80
2022/08/24 12:50:50;;;;;;;7.65;2.65;;;48.90;1.00;;;;;;5102677;28;20194;-80
2022/08/24 12:53:50;;;;;;;5.28;2.40;;;49.40;1.00;;;;;;5105219;28;20203;-80
2022/08/24 12:56:47;;;;;;;3.65;2.22;;;50.30;1.00;;;;;;5103549;28;20175;-80
2022/08/24 12:59:27;;;;;;;7.03;2.20;;;50.40;1.00;;;;;;5091858;28;20180;-80
2022/08/24 13:02:19;;;;;;;4.82;2.25;;;50.20;1.00;;;;;;5082722;28;20254;-80
2022/08/24 13:04:47;;;;;;;7.22;2.65;;;49.70;1.00;;;;;;5081251;28;20208;-80
2022/08/24 13:07:21;;;;;;;3.47;2.20;;;49.90;1.00;;;;;;5083824;28;20188;-80
2022/08/24 13:10:13;;;;;;;3.75;2.60;;;50.50;1.00;;;;;;5083185;28;20736;-80
2022/08/24 13:12:40;;;;;;;3.97;2.15;;;51.30;1.00;;;;;;5084173;28;20291;-80
2022/08/24 13:15:24;;;;;;;5.03;2.35;;;51.50;1.00;;;;;;5083669;28;20223;-80
2022/08/24 13:17:59;;;;;;;4.78;2.10;;;51.70;1.00;;;;;;5083858;28;20642;-80
2022/08/24 13:20:49;;;;;;;3.47;2.35;;;50.40;1.00;;;;;;5086586;28;20171;-80
2022/08/24 13:23:18;;;;;;;3.17;2.10;;;49.70;1.00;;;;;;5099987;28;20214;-81
2022/08/24 13:25:46;;;;;;;3.28;2.10;;;49.30;1.00;;;;;;5103769;28;20236;-80
2022/08/24 13:30:52;;;;;;;6.05;2.28;;;50.80;1.00;;;;;;5103575;28;20179;-80
2022/08/24 13:33:27;;;;;;;3.95;1.98;;;50.90;1.00;;;;;;5104031;28;20227;-80
2022/08/24 13:35:56;;;;;;;3.75;2.22;;;50.80;1.00;;;;;;5103671;28;20202;-80
2022/08/24 13:38:34;;;;;;;5.22;2.10;;;50.50;1.00;;;;;;5103634;28;20345;-80